This is the latest recevied weather packets stored in our database for station/object W5HKR. If no packets are shown the sender has not sent any weather packets the latest 10 day(s).
| Time | Temp. | Humidity | Pressure | Rain* | Wind** | Luminosity | Snow |
|---|---|---|---|---|---|---|---|
| 1777793312 | 11.67° C | 89% | 993.8 hPa | 0 mm | - | - | - |
| 1777793010 | 18.33° C | 91% | 990.6 hPa | 0 mm | - | - | - |
| 1777792922 | 12.22° C | 89% | 993.6 hPa | 0 mm | - | - | - |
| 1777792712 | 11.67° C | 90% | 993.5 hPa | 0 mm | - | - | - |
| 1777792411 | 18.33° C | 91% | 990.6 hPa | 0 mm | - | - | - |
| 1777792111 | 18.33° C | 91% | 990.6 hPa | 0 mm | - | - | - |
| 1777791841 | 18.33° C | 91% | 990.6 hPa | 0 mm | - | - | - |
| 1777791812 | 18.33° C | 91% | 990.6 hPa | 0 mm | - | - | - |
| 1777791511 | 18.33° C | 91% | 990.6 hPa | 0 mm | - | - | - |
| 1777791211 | 18.33° C | 91% | 990.6 hPa | 0 mm | - | - | - |
| 1777790911 | 18.33° C | 91% | 990.6 hPa | 0 mm | - | - | - |
| 1777790762 | 12.22° C | 89% | 993 hPa | 0 mm | - | - | - |
| 1777790613 | 12.22° C | 89% | 993.6 hPa | 0 mm | - | - | - |
| 1777790310 | 12.22° C | 89% | 993.6 hPa | 0 mm | - | - | - |
| 1777790011 | 12.22° C | 88% | 993.6 hPa | 0 mm | - | - | - |
| 1777789682 | 12.22° C | 88% | 993.5 hPa | 0 mm | - | - | - |
| 1777789411 | 18.33° C | 91% | 990.6 hPa | 0 mm | - | - | - |
| 1777789112 | 12.22° C | 88% | 993.7 hPa | 0 mm | - | - | - |
| 1777788812 | 12.78° C | 87% | 993.6 hPa | 0 mm | - | - | - |
| 1777788602 | 18.33° C | 91% | 990.6 hPa | 0 mm | - | - | - |
| 1777788510 | 18.33° C | 91% | 990.6 hPa | 0 mm | - | - | - |
| 1777788210 | 18.33° C | 91% | 990.6 hPa | 0 mm | - | - | - |
| 1777787897 | 12.78° C | 86% | 993.4 hPa | 0 mm | - | - | - |
| 1777787597 | 12.78° C | 85% | 993.6 hPa | 0 mm | - | - | - |
| 1777787508 | 18.33° C | 91% | 990.6 hPa | 0 mm | - | - | - |
* Rain latest hour (hover to see other rain measurements)
** Current wind speed in m/s (hover to see current wind gust speed)